Hundreds of Positions Available Nationwide

Apply for an Exciting Career Opportunity!


The following jobs are currently available.
Click on the job to find out more about the requirements for the position.

#Job IDTitle# OpeningsLocationRateDurationPostedCategory 
1 184822 General Laborer 1Santa Maria, CAUp to $15.00 DOE8 Months02/18/2020GENO,
2 184823 General Laborer 1Santa Maria, CAUp to $15.00 DOE8 Months02/18/2020GENO,
3 184775 Shipping Associate II 1Acton, MA$19.69 to $21.46 DOE1 year02/17/2020GENO,
4 184782 General Labor 6Pittsburgh, PAUp to $15.00 DOE6 Months02/17/2020GENO,
5 184770 Packaging Technician 1Indianapolis, INUp to $13.75 DOE12 Months02/14/2020GENO,
6 184690 Medical Equipment Service Representative 1Acton, MA$25.89 to $27.79 DOE1 year02/12/2020GENO,
7 184649 Material Handler I 1San Diego, CAUp to $15.00 DOE12 mos02/11/2020GENO,
8 184650 Material Handler I 1San Diego, CAUp to $15.00 DOE12 mos02/11/2020GENO,
9 184651 Material Handler I 1San Diego, CAUp to $15.00 DOE12 mos02/11/2020GENO,
10 184656 Tool Coordinator 1 2Jacksonville, FL$DOE12 Months02/11/2020GENO,
11 184687 Stock Assistant 2Manassas, VA$DOE12 months02/11/2020GENO,
12 184641 Stores Specialist 1Menlo Park, CA$20 to $30.00 DOE6 Months02/10/2020GENO,
13 184643 Warehouse Associate 1Tracy, CA$DOE12 Months02/10/2020GENO,
14 184644 Warehouse Associate II 1Shoreview, MN$14.2 to $15.46 DOE1 year02/10/2020GENO,
15 184647 Warehouse Worker 1Hanover Park, ILUp to $15.00 DOE6 mos02/10/2020GENO,
16 184627 Document Control Administrator 1Grand Island, NYUp to $22.50 DOE12 Months02/07/2020GENO,
17 184601 RMA Coordinator 1Ayer, MA$24 to $28.00 DOE6 Months02/06/2020GENO,
18 184549 Production Assembler-2nd Shift 1Asheville, NC$DOE12 mos02/05/2020GENO,
19 184569 Stock Assistant 1Marion, MA$DOE15 months02/05/2020GENO,
20 184572 Stock Assistant 1Marion, MA$DOE15 months02/05/2020GENO,
21 184517 Material Handler 1Grand Island, NYUp to $14.50 DOE12 mos02/04/2020GENO,
22 184531 Packaging Technician 1Allentown, PAUp to $14.03 DOE12 Months02/04/2020GENO,
23 184544 Production/Inventory Coordinator A 2North Charleston, SC$DOE6 Months02/04/2020GENHSM,
24 184546 Material Handler 1Carlsbad, CAUp to $15.00 DOE12 Months02/04/2020GENO,
25 184496 General Laborer I 1Santa Maria, CA$DOE6 months02/03/2020GENO,
26 184412 Packaging Technician 1Allentown, PAUp to $14.66 DOETemp01/30/2020GENO,
27 184418 Material Coordinator 3San Antonio, TX$DOE6 Months01/30/2020GENO, OM
28 184441 Lead Logistics Clerk 1Plymouth, MN$DOE12 months01/30/2020GENO,
29 184385 Warehouse Associate 1Chino, CAUp to $13.97 DOE12 Months01/29/2020GENO,
30 184386 Tool Coordinator 2 2Tinker AFB, OK$DOE12 Months01/29/2020GENO, I
31 184392 Tool Coordinator 3 1Mountain Home AFB, ID$DOE12 Months01/29/2020GENO, I
32 184400 Loader 1Philadelphia, PA$DOE1 month01/29/2020GENO,
33 184375 Shipping Clerk 1Rochester, NYUp to $16.50 DOE4 Months01/28/2020GENO,
34 184338 Machinist 1Baltimore, MD$DOE4 months01/27/2020GENO,
35 184293 Aircraft Assembly Technician-Vertical Lift 10Mesa, AZ$DOE12 Months01/23/2020GENO,
36 184268 Assembler 1Oldsmar, FL$DOE12 months01/22/2020GENO,
37 184194 Packaging/Labeling Technician I 1Indianapolis, INUp to $13.75 DOE 01/21/2020GENO,
38 184195 Production/Inventory Coordinator A 4Mesa, AZ$DOE 01/21/2020GENO,
39 184159 Warehouse Associate 1Tracy, CAUp to $16.00 DOE12 mos01/20/2020GENO,
40 184170 Product Repair/Mod Technician C 1Eglin AFB, FL$DOE12 Months01/20/2020GENHSM, S
41 184171 Product Repair/Mod Technician C 2Eglin AFB, FL$DOE12 Months01/20/2020GENHSM, S
42 184172 Product Repair/Mod Technician C 1Eglin AFB, FL$DOE12 Months01/20/2020GENHSM, S
43 184173 APG Mechanic 1Greenville, SC$DOE8 months01/20/2020GENO,
44 184175 Material Handler 1Grand Island, NY$DOE11 Months01/20/2020GENO,
45 184185 Material Handler 1South San Francisco, CAUp to $18.00 DOE12 Months01/20/2020GENO,
46 184192 General Maintenance Worker 1Manassas, VA$DOE5 months01/20/2020GENO, I
47 184193 Electrician 1Manassas, VA$DOE6 months01/20/2020GENO, I
48 184100 General Maintenance Worker 1Coronado Island, CA$DOE4 months01/15/2020GENO, I
49 184052 Material Handler 1Oakwood Village, OH$DOE12 Months01/13/2020GENO,
50 183697 General Laborer I 1Santa Maria, CA$DOE6 MONTHS12/18/2019GENO,
51 183672 Packaging Technician 1Indianapolis, INUp to $13.75 DOE12 Months12/17/2019GENO,
52 183636 Bonder 1Cypress, CA$12.5 to $14.00 DOE6+ Months12/16/2019GENO,
53 183556 Production Clerk 1Louisville, KY$DOE9 months12/12/2019GENO,
54 183559 Material Handler 1Carlsbad, CAUp to $14.00 DOE12 Months12/12/2019GENO,
55 183525 Shipping and Receiving Clerk 1Alpharetta, GAUp to $20.00 DOE6 Months12/11/2019GENO,
56 183544 Assembler 4Oldsmar, FL$DOE12 months12/11/2019GENO,
57 183546 Logistics Management Analyst 2Tampa, FL$DOE 12/11/2019GENO, S
58 183418 Material Control Coordinator 1Rancho Bernardo, CA$DOE3 Months12/06/2019GENO,
59 183362 Material Handler 1Scotts Valley, CAUp to $25.00 DOE12 mmos12/04/2019GENO,
60 183336 Receiving Clerk 1Cypress, CA$13 to $14.00 DOE6 Months12/03/2019GENO,
61 183235 Production Control Support Associate 1Owego, NY$DOE12 months11/25/2019GENO,
62 183176 Material Handler 1Grand Island, NYUp to $14.00 DOE12 Months11/20/2019GENO,
63 183177 Material Handler 1Grand Island, NYUp to $14.50 DOE12 Months11/20/2019GENO,
64 183146 Stock Assistant 2Syracuse, NY$DOE12 MONTHS11/19/2019GENO,
65 183093 Material Handler 1Grand Island, NYUp to $14.50 DOE11 Months11/18/2019GENO,
66 183095 Material Handler 1Grand Island, NY$DOE12 Months11/18/2019GENO,
67 182913 Material Coordinator 1San Antonio, TX$DOE6 MONTHS11/10/2019GENO,
68 182871 Composite Technician 25Mesa, AZ$DOE12 Months11/06/2019GENO,
69 182678 Associate Equipment Operator, Folder- Gluer 1Bohemia, NYUp to $16.50 DOE12 mos10/30/2019GENO,
70 182592 Material Control Coordinator 1Fredericksburg, VA$DOE2 Months10/24/2019GENO,
71 182364 Shipping Clerk 1Cypress, CA$DOE6 Months10/15/2019GENO,
72 182286 LOGISTIC CLERK 1HUNTINGTON BEACH, CA$DOE5-6 months10/11/2019GENO,
73 182008 Stock Assistant 1Syracuse, NY$17 to $18.00 DOECTH10/01/2019GENO,
74 181950 Fill and Fair Associate 1Cypress, CA$DOE 09/27/2019GENO,
75 181906 General Maintenance Worker 1Coronado Island, CA$DOE4 MONTHS09/26/2019GENO, OM
76 181765 Depot Service Technician 1Tewksbury, MAUp to $22.00 DOE12 mos09/23/2019GENO,
77 180163 Fabrication Specialist A 6Salt Lake City, UT$DOE12 Months07/02/2019GENHSM,
78 180155 Aircraft Mechanic II 1Lexington, KY$DOE3 MONTHS07/01/2019GENO, I
79 179939 Composite Technician 20Mesa, AZ$DOE12 Months06/19/2019GENO,
80 178643 Maritime Electrician 11San Diego, CA$22 to $28.00 DOE9 Months04/11/2019GENO,
Search request
Documents found: